createdAt,value
2023-06-29T00:02:00.636Z,97052.97
2023-06-29T00:04:27.431Z,97056.00
2023-06-29T00:06:54.067Z,97054.19
2023-06-29T00:09:20.759Z,97047.19
2023-06-29T00:11:47.270Z,97045.06
2023-06-29T00:14:13.826Z,97039.75
2023-06-29T00:16:40.498Z,97037.59
2023-06-29T00:19:07.147Z,97037.00
2023-06-29T00:21:33.619Z,97039.13
2023-06-29T00:24:00.284Z,97039.13
2023-06-29T00:26:26.827Z,97039.91
2023-06-29T00:28:53.456Z,97035.19
2023-06-29T00:31:20.055Z,97034.88
2023-06-29T00:33:46.664Z,97035.03
2023-06-29T00:36:14.276Z,97038.09
2023-06-29T00:38:40.820Z,97034.44
2023-06-29T00:41:07.418Z,97031.09
2023-06-29T00:43:33.917Z,97032.63
2023-06-29T00:46:00.549Z,97040.50
2023-06-29T00:48:27.184Z,97043.56
2023-06-29T00:50:53.777Z,97035.66
2023-06-29T00:53:20.301Z,97044.28
2023-06-29T00:55:46.903Z,97043.56
2023-06-29T00:58:13.406Z,97043.84
2023-06-29T01:00:39.937Z,97042.97
2023-06-29T01:03:06.596Z,97048.13
2023-06-29T01:05:33.212Z,97049.78
2023-06-29T01:07:59.705Z,97048.56
2023-06-29T01:10:26.271Z,97040.50
2023-06-29T01:12:52.764Z,97046.59
2023-06-29T01:15:19.352Z,97046.13
2023-06-29T01:17:45.895Z,97043.25
2023-06-29T01:20:14.913Z,97043.56
2023-06-29T01:22:41.474Z,97040.81
2023-06-29T01:25:08.051Z,97033.34
2023-06-29T01:27:34.664Z,97038.69
2023-06-29T01:30:01.234Z,97036.41
2023-06-29T01:32:30.700Z,97032.63
2023-06-29T01:34:57.328Z,97037.31
2023-06-29T01:37:23.955Z,97031.09
2023-06-29T01:39:50.623Z,97035.81
2023-06-29T01:42:17.235Z,97035.94
2023-06-29T01:44:43.759Z,97033.34
2023-06-29T01:47:10.320Z,97032.75
2023-06-29T01:49:36.983Z,97024.84
2023-06-29T01:52:03.618Z,97031.53
2023-06-29T01:54:30.259Z,97036.25
2023-06-29T01:56:56.836Z,97028.03
2023-06-29T01:59:24.455Z,97025.00
2023-06-29T02:01:51.112Z,97022.28
2023-06-29T02:04:17.784Z,97025.91
2023-06-29T02:06:44.338Z,97015.88
2023-06-29T02:09:10.912Z,97022.88
2023-06-29T02:11:37.356Z,97019.81
2023-06-29T02:14:03.974Z,97017.53
2023-06-29T02:16:30.670Z,97013.16
2023-06-29T02:18:57.322Z,97010.41
2023-06-29T02:21:23.925Z,97022.28
2023-06-29T02:23:50.458Z,97023.94
2023-06-29T02:26:16.986Z,97021.50
2023-06-29T02:28:43.571Z,97033.22
2023-06-29T02:31:10.212Z,97036.84
2023-06-29T02:33:36.790Z,97032.75
2023-06-29T02:36:03.389Z,97033.50
2023-06-29T02:38:30.057Z,97027.28
2023-06-29T02:40:56.690Z,97033.50
2023-06-29T02:43:23.187Z,97034.44
2023-06-29T02:45:49.774Z,97025.59
2023-06-29T02:48:16.369Z,97022.28
2023-06-29T02:50:42.943Z,97022.56
2023-06-29T02:53:09.485Z,97022.72
2023-06-29T02:55:36.101Z,97023.47
2023-06-29T02:58:02.629Z,97020.75
2023-06-29T03:00:29.311Z,97020.44
2023-06-29T03:02:55.994Z,97025.00
2023-06-29T03:05:22.673Z,97023.47
2023-06-29T03:07:49.277Z,97024.25
2023-06-29T03:10:15.784Z,97027.44
2023-06-29T03:12:42.392Z,97023.47
2023-06-29T03:15:08.905Z,97024.69
2023-06-29T03:17:35.482Z,97025.00
2023-06-29T03:20:02.021Z,97026.81
2023-06-29T03:22:28.556Z,97035.47
2023-06-29T03:24:55.186Z,97033.94
2023-06-29T03:27:21.792Z,97029.72
2023-06-29T03:29:48.267Z,97034.44
2023-06-29T03:32:14.823Z,97031.09
2023-06-29T03:34:41.339Z,97030.59
2023-06-29T03:37:07.861Z,97041.44
2023-06-29T03:39:34.425Z,97042.31
2023-06-29T03:42:01.071Z,97027.59
2023-06-29T03:44:27.570Z,97031.38
2023-06-29T03:46:54.048Z,97037.44
2023-06-29T03:49:20.563Z,97037.75
2023-06-29T03:51:47.110Z,97039.28
2023-06-29T03:54:13.637Z,97032.59
2023-06-29T03:56:40.168Z,97044.00
2023-06-29T03:59:06.770Z,97037.75
2023-06-29T04:01:33.284Z,97038.38
2023-06-29T04:03:59.991Z,97038.81
2023-06-29T04:06:26.733Z,97037.31
2023-06-29T04:08:53.190Z,97038.97
2023-06-29T04:11:19.720Z,97037.31
2023-06-29T04:13:46.350Z,97034.59
2023-06-29T04:16:13.011Z,97037.59
2023-06-29T04:18:39.655Z,97042.03
2023-06-29T04:21:06.279Z,97033.94
2023-06-29T04:23:32.881Z,97022.56
2023-06-29T04:25:59.539Z,97028.34
2023-06-29T04:28:26.049Z,97034.69
2023-06-29T04:30:52.600Z,97024.97
2023-06-29T04:33:19.182Z,97027.09
2023-06-29T04:35:46.230Z,97023.16
2023-06-29T04:38:13.126Z,97027.09
2023-06-29T04:40:39.713Z,97024.84
2023-06-29T04:43:06.280Z,97016.16
2023-06-29T04:45:32.890Z,97027.59
2023-06-29T04:47:59.549Z,97021.50
2023-06-29T04:50:26.264Z,97033.81
2023-06-29T04:52:53.170Z,97026.81
2023-06-29T04:55:19.680Z,97037.00
2023-06-29T04:57:46.242Z,97028.63
2023-06-29T05:00:12.771Z,97028.94
2023-06-29T05:02:39.421Z,97033.75
2023-06-29T05:05:05.991Z,97036.06
2023-06-29T05:07:32.579Z,97032.91
2023-06-29T05:09:59.104Z,97031.38
2023-06-29T05:12:25.557Z,97033.06
2023-06-29T05:14:52.048Z,97043.53
2023-06-29T05:17:18.715Z,97037.59
2023-06-29T05:19:45.252Z,97035.63
2023-06-29T05:22:11.717Z,97031.69
2023-06-29T05:24:38.259Z,97036.81
2023-06-29T05:27:05.011Z,97035.19
2023-06-29T05:29:31.565Z,97027.56
2023-06-29T05:31:58.140Z,97027.59
2023-06-29T05:34:24.808Z,97029.38
2023-06-29T05:36:51.332Z,97031.81
2023-06-29T05:39:17.902Z,97034.09
2023-06-29T05:41:44.460Z,97031.97
2023-06-29T05:44:10.992Z,97036.69
2023-06-29T05:46:37.846Z,97036.69
2023-06-29T05:49:07.196Z,97035.03
2023-06-29T05:51:33.764Z,97037.16
2023-06-29T05:54:00.312Z,97033.19
2023-06-29T05:56:26.817Z,97042.03
2023-06-29T05:58:53.326Z,97043.22
2023-06-29T06:01:19.982Z,97045.06
2023-06-29T06:03:46.717Z,97042.63
2023-06-29T06:06:13.295Z,97048.25
2023-06-29T06:08:39.867Z,97050.81
2023-06-29T06:11:06.360Z,97053.72
2023-06-29T06:13:32.825Z,97049.59
2023-06-29T06:15:59.397Z,97052.03
2023-06-29T06:18:25.932Z,97047.78
2023-06-29T06:20:52.516Z,97049.31
2023-06-29T06:23:19.063Z,97048.72
2023-06-29T06:25:45.675Z,97044.44
2023-06-29T06:28:12.364Z,97046.25
2023-06-29T06:30:39.006Z,97047.50
2023-06-29T06:33:05.728Z,97051.72
2023-06-29T06:35:32.311Z,97048.41
2023-06-29T06:37:58.877Z,97052.31
2023-06-29T06:40:25.464Z,97049.63
2023-06-29T06:42:52.008Z,97053.72
2023-06-29T06:45:18.626Z,97045.66
2023-06-29T06:47:45.356Z,97043.25
2023-06-29T06:50:12.126Z,97044.16
2023-06-29T06:52:38.693Z,97049.78
2023-06-29T06:55:05.326Z,97048.41
2023-06-29T06:57:31.861Z,97045.97
2023-06-29T06:59:58.447Z,97048.44
2023-06-29T07:02:25.137Z,97048.13
2023-06-29T07:04:51.834Z,97047.34
2023-06-29T07:07:18.438Z,97048.44
2023-06-29T07:09:45.109Z,97052.69
2023-06-29T07:12:11.664Z,97052.38
2023-06-29T07:14:38.280Z,97049.31
2023-06-29T07:17:04.821Z,97050.72
2023-06-29T07:24:30.312Z,97049.06
2023-06-29T07:26:56.914Z,97047.84
2023-06-29T07:29:23.486Z,97043.88
2023-06-29T07:31:50.070Z,97045.41
2023-06-29T07:34:16.705Z,97047.84
2023-06-29T07:36:43.261Z,97052.88
2023-06-29T07:39:09.929Z,97049.06
2023-06-29T07:41:36.488Z,97055.91
2023-06-29T07:44:03.070Z,97059.41
2023-06-29T07:46:29.609Z,97059.38
2023-06-29T07:48:56.501Z,97057.56
2023-06-29T07:51:23.203Z,97067.91
2023-06-29T07:53:49.750Z,97062.75
2023-06-29T07:56:16.443Z,97066.53
2023-06-29T07:58:43.043Z,97064.25
2023-06-29T08:01:09.654Z,97068.84
2023-06-29T08:03:55.904Z,97054.56
2023-06-29T08:08:52.510Z,97062.44
2023-06-29T08:11:19.316Z,97058.03
2023-06-29T08:13:46.002Z,97051.81
2023-06-29T08:16:12.616Z,97061.03
2023-06-29T08:18:39.389Z,97061.84
2023-06-29T08:21:06.067Z,97058.34
2023-06-29T08:23:32.573Z,97060.03
2023-06-29T08:25:59.107Z,97062.75
2023-06-29T08:28:25.696Z,97054.56
2023-06-29T08:30:52.246Z,97049.06
2023-06-29T08:33:18.855Z,97052.56
2023-06-29T08:35:45.508Z,97042.69
2023-06-29T08:38:12.058Z,97047.88
2023-06-29T08:40:38.633Z,97049.69
2023-06-29T08:43:05.162Z,97044.66
2023-06-29T08:45:31.649Z,97056.81
2023-06-29T08:47:58.401Z,97044.22
2023-06-29T08:50:25.007Z,97045.75
2023-06-29T08:52:51.601Z,97044.97
2023-06-29T08:55:18.218Z,97035.06
2023-06-29T08:57:44.805Z,97037.97
2023-06-29T09:00:11.756Z,97039.94
2023-06-29T09:02:38.452Z,97039.06
2023-06-29T09:05:05.067Z,97037.97
2023-06-29T09:07:31.605Z,97040.41
2023-06-29T09:09:58.305Z,97031.72
2023-06-29T09:12:24.912Z,97035.56
2023-06-29T09:14:51.559Z,97031.72
2023-06-29T09:17:18.131Z,97024.72
2023-06-29T09:19:44.711Z,97028.56
2023-06-29T09:22:11.345Z,97030.06
2023-06-29T09:24:46.453Z,97033.88
2023-06-29T09:27:16.640Z,97035.56
2023-06-29T09:29:43.103Z,97032.34
2023-06-29T09:32:09.691Z,97020.78
2023-06-29T09:34:36.320Z,97023.84
2023-06-29T09:37:02.933Z,97028.72
2023-06-29T09:39:29.445Z,97025.38
2023-06-29T09:41:56.122Z,97025.38
2023-06-29T09:44:22.799Z,97021.09
2023-06-29T09:49:19.002Z,97017.28
2023-06-29T09:51:45.590Z,97022.75
2023-06-29T09:54:12.290Z,97008.03
2023-06-29T09:56:38.820Z,97012.72
2023-06-29T09:59:05.326Z,97008.31
2023-06-29T10:01:32.062Z,97014.53
2023-06-29T10:03:58.797Z,97008.03
2023-06-29T10:06:25.380Z,97006.50
2023-06-29T10:08:51.896Z,97007.25
2023-06-29T10:11:18.453Z,97015.16
2023-06-29T10:13:45.120Z,97003.31
2023-06-29T10:16:11.661Z,97005.91
2023-06-29T10:18:38.223Z,97008.19
2023-06-29T10:21:04.826Z,97006.19
2023-06-29T10:23:31.453Z,96998.13
2023-06-29T10:25:57.999Z,97004.38
2023-06-29T10:28:24.543Z,96994.91
2023-06-29T10:30:51.089Z,96992.19
2023-06-29T10:33:17.601Z,96992.19
2023-06-29T10:35:44.173Z,96986.38
2023-06-29T10:38:10.876Z,96981.53
2023-06-29T10:40:37.509Z,96976.53
2023-06-29T10:43:04.166Z,96987.03
2023-06-29T10:45:30.700Z,96981.06
2023-06-29T10:47:57.384Z,96980.47
2023-06-29T10:50:24.017Z,96982.44
2023-06-29T10:52:50.556Z,96979.88
2023-06-29T10:55:17.024Z,96986.13
2023-06-29T10:57:43.583Z,96981.97
2023-06-29T11:00:10.236Z,96978.63
2023-06-29T11:02:36.784Z,96971.78
2023-06-29T11:05:03.389Z,96970.28
2023-06-29T11:07:30.066Z,96965.13
2023-06-29T11:09:56.662Z,96965.44
2023-06-29T11:12:23.182Z,96965.09
2023-06-29T11:14:54.123Z,96959.50
2023-06-29T11:17:29.248Z,96949.00
2023-06-29T11:19:55.771Z,96952.22
2023-06-29T11:22:22.407Z,96954.47
2023-06-29T11:24:49.025Z,96951.44
2023-06-29T11:27:15.628Z,96949.63
2023-06-29T11:29:42.213Z,96954.00
2023-06-29T11:32:08.831Z,96941.69
2023-06-29T11:34:35.394Z,96936.53
2023-06-29T11:37:14.936Z,96932.88
2023-06-29T11:39:42.963Z,96934.09
2023-06-29T11:42:09.484Z,96928.16
2023-06-29T11:44:36.188Z,96933.34
2023-06-29T11:47:18.383Z,96925.59
2023-06-29T11:49:49.262Z,96913.72
2023-06-29T11:52:15.851Z,96915.88
2023-06-29T11:54:43.044Z,96910.41
2023-06-29T11:57:10.050Z,96908.56
2023-06-29T11:59:36.720Z,96906.47
2023-06-29T12:02:03.365Z,96909.94
2023-06-29T12:04:29.989Z,96901.91
2023-06-29T12:06:56.671Z,96904.75
2023-06-29T12:09:23.277Z,96891.06
2023-06-29T12:11:49.815Z,96891.84
2023-06-29T12:14:16.377Z,96894.59
2023-06-29T12:19:12.577Z,96893.34
2023-06-29T12:21:39.745Z,96885.78
2023-06-29T12:24:06.554Z,96889.22
2023-06-29T12:26:33.210Z,96892.47
2023-06-29T12:28:59.835Z,96890.94
2023-06-29T12:31:26.597Z,96883.34
2023-06-29T12:33:53.292Z,96875.59
2023-06-29T12:36:19.888Z,96874.06
2023-06-29T12:38:46.522Z,96868.13
2023-06-29T12:41:13.128Z,96864.66
2023-06-29T12:43:39.729Z,96866.63
2023-06-29T12:46:06.321Z,96867.53
2023-06-29T12:48:32.901Z,96862.06
2023-06-29T12:50:59.523Z,96859.03
2023-06-29T12:53:26.065Z,96853.19
2023-06-29T12:55:52.668Z,96858.50
2023-06-29T12:58:19.361Z,96847.41
2023-06-29T13:00:45.927Z,96848.59
2023-06-29T13:03:12.784Z,96846.34
2023-06-29T13:05:39.586Z,96851.78
2023-06-29T13:08:06.185Z,96843.00
2023-06-29T13:10:34.282Z,96843.13
2023-06-29T13:13:01.058Z,96841.00
2023-06-29T13:15:27.726Z,96836.88
2023-06-29T13:17:54.405Z,96839.19
2023-06-29T13:20:21.095Z,96828.81
2023-06-29T13:22:47.716Z,96833.69
2023-06-29T13:25:14.348Z,96834.28
2023-06-29T13:27:40.951Z,96832.47
2023-06-29T13:30:07.566Z,96828.19
2023-06-29T13:32:34.075Z,96828.63
2023-06-29T13:35:00.609Z,96815.88
2023-06-29T13:37:27.222Z,96820.59
2023-06-29T13:39:53.755Z,96819.97
2023-06-29T13:42:20.356Z,96808.25
2023-06-29T13:44:46.923Z,96809.00
2023-06-29T13:47:13.539Z,96812.03
2023-06-29T13:49:40.094Z,96801.38
2023-06-29T13:52:06.649Z,96807.16
2023-06-29T13:54:33.302Z,96802.44
2023-06-29T13:56:59.829Z,96794.25
2023-06-29T13:59:26.438Z,96800.16
2023-06-29T14:01:53.170Z,96798.94
2023-06-29T14:04:19.911Z,96797.44
2023-06-29T14:06:46.514Z,96790.13
2023-06-29T14:09:13.120Z,96789.97
2023-06-29T14:11:39.799Z,96795.56
2023-06-29T14:14:06.287Z,96796.03
2023-06-29T14:16:32.889Z,96785.50
2023-06-29T14:18:59.472Z,96788.59
2023-06-29T14:21:26.162Z,96786.88
2023-06-29T14:23:52.776Z,96789.31
2023-06-29T14:26:19.464Z,96786.59
2023-06-29T14:28:46.099Z,96785.69
2023-06-29T14:31:12.716Z,96787.06
2023-06-29T14:33:40.397Z,96777.63
2023-06-29T14:36:07.005Z,96775.66
2023-06-29T14:38:33.557Z,96778.66
2023-06-29T14:41:00.178Z,96773.53
2023-06-29T14:43:26.716Z,96771.72
2023-06-29T14:45:53.262Z,96775.56
2023-06-29T14:48:19.847Z,96762.59
2023-06-29T14:50:47.932Z,96771.44
2023-06-29T14:53:15.982Z,96768.22
2023-06-29T14:55:42.578Z,96765.19
2023-06-29T14:58:09.218Z,96774.00
2023-06-29T15:00:35.703Z,96759.66
2023-06-29T15:03:02.562Z,96759.53
2023-06-29T15:05:29.160Z,96761.00
2023-06-29T15:07:55.640Z,96758.19
2023-06-29T15:10:22.110Z,96744.75
2023-06-29T15:12:48.628Z,96741.00
2023-06-29T15:15:15.126Z,96740.38
2023-06-29T15:17:41.752Z,96731.13
2023-06-29T15:20:08.353Z,96738.50
2023-06-29T15:22:34.878Z,96740.03
2023-06-29T15:25:01.363Z,96735.44
2023-06-29T15:27:27.867Z,96728.81
2023-06-29T15:29:54.648Z,96724.91
2023-06-29T15:32:21.214Z,96727.41
2023-06-29T15:34:47.753Z,96725.50
2023-06-29T15:37:14.235Z,96718.50
2023-06-29T15:39:40.772Z,96720.59
2023-06-29T15:42:07.322Z,96714.19
2023-06-29T15:44:33.822Z,96712.88
2023-06-29T15:47:00.335Z,96711.13
2023-06-29T15:49:26.826Z,96710.22
2023-06-29T15:51:53.408Z,96705.25
2023-06-29T15:54:19.901Z,96702.69
2023-06-29T15:56:46.448Z,96703.53
2023-06-29T15:59:12.968Z,96706.28
2023-06-29T16:01:39.595Z,96712.09
2023-06-29T16:04:06.404Z,96705.75
2023-06-29T16:06:33.002Z,96712.09
2023-06-29T16:08:59.584Z,96705.34
2023-06-29T16:11:26.086Z,96715.06
2023-06-29T16:13:52.608Z,96702.13
2023-06-29T16:16:20.383Z,96712.44
2023-06-29T16:18:46.917Z,96710.38
2023-06-29T16:21:13.468Z,96715.38
2023-06-29T16:23:39.967Z,96704.41
2023-06-29T16:26:06.609Z,96705.94
2023-06-29T16:28:34.158Z,96711.53
2023-06-29T16:31:01.244Z,96702.88
2023-06-29T16:33:27.866Z,96710.38
2023-06-29T16:35:54.414Z,96709.31
2023-06-29T16:38:21.007Z,96710.09
2023-06-29T16:40:47.544Z,96704.28
2023-06-29T16:43:14.258Z,96702.78
2023-06-29T16:45:40.778Z,96692.75
2023-06-29T16:48:08.056Z,96671.28
2023-06-29T16:50:34.645Z,96676.00
2023-06-29T16:53:01.246Z,96679.06
2023-06-29T16:55:27.740Z,96702.34
2023-06-29T16:57:54.355Z,96674.69
2023-06-29T17:00:20.962Z,96687.66
2023-06-29T17:02:47.655Z,96690.19
2023-06-29T17:05:14.420Z,96702.63
2023-06-29T17:07:41.102Z,96695.59
2023-06-29T17:10:07.693Z,96699.56
2023-06-29T17:12:34.329Z,96703.28
2023-06-29T17:15:00.948Z,96703.38
2023-06-29T17:17:30.616Z,96701.91
2023-06-29T17:19:57.167Z,96701.41
2023-06-29T17:22:23.652Z,96696.41
2023-06-29T17:24:50.276Z,96706.81
2023-06-29T17:27:16.874Z,96699.84
2023-06-29T17:29:43.499Z,96699.25
2023-06-29T17:32:10.100Z,96704.38
2023-06-29T17:34:36.718Z,96703.31
2023-06-29T17:37:03.508Z,96697.09
2023-06-29T17:39:30.071Z,96706.25
2023-06-29T17:41:56.622Z,96707.38
2023-06-29T17:44:23.268Z,96707.06
2023-06-29T17:46:49.908Z,96709.06
2023-06-29T17:49:16.518Z,96703.28
2023-06-29T17:51:42.982Z,96713.66
2023-06-29T17:54:09.823Z,96713.38
2023-06-29T17:56:36.408Z,96706.38
2023-06-29T17:59:02.944Z,96707.91
2023-06-29T18:01:29.746Z,96719.13
2023-06-29T18:03:56.534Z,96722.94
2023-06-29T18:06:23.228Z,96726.59
2023-06-29T18:08:49.861Z,96723.59
2023-06-29T18:11:16.345Z,96725.56
2023-06-29T18:13:42.862Z,96724.03
2023-06-29T18:16:09.456Z,96730.09
2023-06-29T18:18:36.075Z,96728.31
2023-06-29T18:21:02.666Z,96726.78
2023-06-29T18:23:29.306Z,96731.50
2023-06-29T18:25:55.874Z,96732.25
2023-06-29T18:28:22.379Z,96732.44
2023-06-29T18:30:48.988Z,96734.72
2023-06-29T18:33:15.726Z,96738.38
2023-06-29T18:35:42.308Z,96741.13
2023-06-29T18:38:08.938Z,96739.91
2023-06-29T18:40:35.491Z,96742.03
2023-06-29T18:43:02.193Z,96739.28
2023-06-29T18:45:29.066Z,96746.75
2023-06-29T18:47:55.605Z,96754.66
2023-06-29T18:50:22.206Z,96748.13
2023-06-29T18:52:48.730Z,96751.00
2023-06-29T18:55:15.205Z,96750.88
2023-06-29T18:57:41.756Z,96741.25
2023-06-29T19:00:08.389Z,96744.19
2023-06-29T19:02:35.045Z,96746.91
2023-06-29T19:05:01.699Z,96747.06
2023-06-29T19:07:28.282Z,96742.84
2023-06-29T19:09:55.290Z,96751.50
2023-06-29T19:12:21.906Z,96756.97
2023-06-29T19:14:48.406Z,96749.72
2023-06-29T19:17:14.971Z,96753.34
2023-06-29T19:19:41.624Z,96763.41
2023-06-29T19:22:08.250Z,96771.13
2023-06-29T19:24:35.132Z,96772.97
2023-06-29T19:27:01.685Z,96767.63
2023-06-29T19:29:28.767Z,96766.88
2023-06-29T19:31:56.213Z,96766.59
2023-06-29T19:34:22.982Z,96779.53
2023-06-29T19:36:49.525Z,96781.94
2023-06-29T19:39:16.104Z,96783.19
2023-06-29T19:41:42.838Z,96789.13
2023-06-29T19:44:09.897Z,96782.31
2023-06-29T19:46:36.685Z,96783.97
2023-06-29T19:49:03.314Z,96787.78
2023-06-29T19:51:29.787Z,96797.03
2023-06-29T19:53:56.405Z,96789.16
2023-06-29T19:56:22.914Z,96795.69
2023-06-29T19:58:49.541Z,96796.63
2023-06-29T20:01:16.072Z,96796.78
2023-06-29T20:03:42.697Z,96801.91
2023-06-29T20:06:09.233Z,96805.50
2023-06-29T20:08:35.740Z,96808.19
2023-06-29T20:11:02.258Z,96806.03
2023-06-29T20:13:28.801Z,96812.59
2023-06-29T20:15:55.391Z,96818.88
2023-06-29T20:18:21.995Z,96818.25
2023-06-29T20:20:48.568Z,96820.97
2023-06-29T20:23:15.160Z,96821.56
2023-06-29T20:25:42.813Z,96826.16
2023-06-29T20:28:09.763Z,96827.53
2023-06-29T20:30:36.356Z,96828.28
2023-06-29T20:33:03.009Z,96830.72
2023-06-29T20:35:29.594Z,96828.13
2023-06-29T20:37:56.155Z,96829.50
2023-06-29T20:40:22.649Z,96845.94
2023-06-29T20:42:49.197Z,96841.66
2023-06-29T20:45:15.731Z,96845.63
2023-06-29T20:47:42.320Z,96851.41
2023-06-29T20:50:09.016Z,96852.63
2023-06-29T20:52:35.632Z,96857.50
2023-06-29T20:55:02.266Z,96859.31
2023-06-29T20:57:28.846Z,96864.34
2023-06-29T20:59:55.484Z,96864.94
2023-06-29T21:02:22.238Z,96867.84
2023-06-29T21:04:49.380Z,96864.50
2023-06-29T21:07:16.172Z,96866.91
2023-06-29T21:09:42.702Z,96859.03
2023-06-29T21:12:09.248Z,96859.47
2023-06-29T21:14:35.858Z,96863.56
2023-06-29T21:17:02.407Z,96862.81
2023-06-29T21:19:28.911Z,96869.19
2023-06-29T21:21:55.520Z,96865.69
2023-06-29T21:24:22.214Z,96861.72
2023-06-29T21:26:48.907Z,96857.75
2023-06-29T21:29:33.391Z,96867.34
2023-06-29T21:32:02.251Z,96866.44
2023-06-29T21:34:28.855Z,96873.72
2023-06-29T21:36:55.523Z,96866.88
2023-06-29T21:39:21.973Z,96874.16
2023-06-29T21:41:48.479Z,96878.16
2023-06-29T21:44:15.022Z,96875.88
2023-06-29T21:46:41.651Z,96875.69
2023-06-29T21:49:08.322Z,96882.09
2023-06-29T21:51:35.009Z,96882.69
2023-06-29T21:54:01.716Z,96877.97
2023-06-29T21:56:28.381Z,96885.44
2023-06-29T21:58:54.970Z,96876.19
2023-06-29T22:01:21.538Z,96871.91
2023-06-29T22:03:48.038Z,96867.19
2023-06-29T22:06:14.626Z,96866.28
2023-06-29T22:08:41.199Z,96867.19
2023-06-29T22:11:07.826Z,96865.69
2023-06-29T22:13:34.289Z,96852.59
2023-06-29T22:16:00.890Z,96855.31
2023-06-29T22:18:27.470Z,96857.00
2023-06-29T22:20:53.967Z,96851.06
2023-06-29T22:23:20.493Z,96854.28
2023-06-29T22:25:47.117Z,96846.22
2023-06-29T22:28:13.833Z,96849.69
2023-06-29T22:30:40.475Z,96847.72
2023-06-29T22:33:07.129Z,96852.75
2023-06-29T22:35:33.684Z,96858.50
2023-06-29T22:38:00.299Z,96858.81
2023-06-29T22:40:26.838Z,96847.44
2023-06-29T22:42:53.389Z,96840.72
2023-06-29T22:45:19.948Z,96834.22
2023-06-29T22:47:46.516Z,96825.84
2023-06-29T22:50:13.025Z,96824.31
2023-06-29T22:52:39.605Z,96825.84
2023-06-29T22:55:06.156Z,96824.47
2023-06-29T22:57:32.723Z,96824.03
2023-06-29T22:59:59.273Z,96826.75
2023-06-29T23:02:25.836Z,96826.75
2023-06-29T23:04:52.481Z,96826.00
2023-06-29T23:07:19.015Z,96820.06
2023-06-29T23:09:45.671Z,96818.06
2023-06-29T23:12:12.115Z,96819.47
2023-06-29T23:14:38.801Z,96823.25
2023-06-29T23:17:05.386Z,96829.50
2023-06-29T23:19:31.894Z,96829.19
2023-06-29T23:21:58.492Z,96826.00
2023-06-29T23:24:25.021Z,96818.56
2023-06-29T23:26:51.606Z,96820.97
2023-06-29T23:29:18.200Z,96828.28
2023-06-29T23:31:44.904Z,96828.28
2023-06-29T23:34:11.505Z,96829.66
2023-06-29T23:36:37.989Z,96830.13
2023-06-29T23:39:04.527Z,96830.41
2023-06-29T23:41:31.104Z,96841.34
2023-06-29T23:43:57.625Z,96843.31
2023-06-29T23:46:24.218Z,96848.06
2023-06-29T23:48:50.891Z,96844.56
2023-06-29T23:51:17.398Z,96836.34
2023-06-29T23:53:43.862Z,96841.06
2023-06-29T23:56:10.394Z,96838.78
2023-06-29T23:58:36.936Z,96825.09
